sensor_id;sensor_type;location;lat;lon;timestamp;P1;durP1;ratioP1;P2;durP2;ratioP2
21868;SDS011;11099;41.564;23.296;2023-10-08T00:00:25;5.85;;;4.47;;
21868;SDS011;11099;41.564;23.296;2023-10-08T00:03:10;5.22;;;4.60;;
21868;SDS011;11099;41.564;23.296;2023-10-08T00:05:36;5.53;;;4.53;;
21868;SDS011;11099;41.564;23.296;2023-10-08T00:08:02;7.38;;;4.90;;
21868;SDS011;11099;41.564;23.296;2023-10-08T00:10:39;5.72;;;5.10;;
21868;SDS011;11099;41.564;23.296;2023-10-08T00:13:09;6.47;;;4.35;;
21868;SDS011;11099;41.564;23.296;2023-10-08T00:15:35;5.95;;;4.82;;
21868;SDS011;11099;41.564;23.296;2023-10-08T00:18:02;8.32;;;5.28;;
21868;SDS011;11099;41.564;23.296;2023-10-08T00:20:30;6.75;;;5.18;;
21868;SDS011;11099;41.564;23.296;2023-10-08T00:23:20;5.75;;;4.55;;
21868;SDS011;11099;41.564;23.296;2023-10-08T00:25:47;5.30;;;4.80;;
21868;SDS011;11099;41.564;23.296;2023-10-08T00:28:15;6.93;;;5.25;;
21868;SDS011;11099;41.564;23.296;2023-10-08T00:30:42;8.32;;;4.93;;
21868;SDS011;11099;41.564;23.296;2023-10-08T00:33:08;6.53;;;4.55;;
21868;SDS011;11099;41.564;23.296;2023-10-08T00:35:40;5.88;;;4.63;;
21868;SDS011;11099;41.564;23.296;2023-10-08T00:38:10;4.85;;;4.35;;
21868;SDS011;11099;41.564;23.296;2023-10-08T00:40:46;4.82;;;3.92;;
21868;SDS011;11099;41.564;23.296;2023-10-08T00:43:36;6.97;;;4.03;;
21868;SDS011;11099;41.564;23.296;2023-10-08T00:46:01;7.15;;;3.90;;
21868;SDS011;11099;41.564;23.296;2023-10-08T00:48:29;8.47;;;4.23;;
21868;SDS011;11099;41.564;23.296;2023-10-08T00:51:04;5.50;;;4.18;;
21868;SDS011;11099;41.564;23.296;2023-10-08T00:54:00;5.82;;;4.30;;
21868;SDS011;11099;41.564;23.296;2023-10-08T00:56:42;5.55;;;4.28;;
21868;SDS011;11099;41.564;23.296;2023-10-08T00:59:14;7.68;;;4.00;;
21868;SDS011;11099;41.564;23.296;2023-10-08T01:01:42;5.05;;;3.92;;
21868;SDS011;11099;41.564;23.296;2023-10-08T01:04:21;4.88;;;3.78;;
21868;SDS011;11099;41.564;23.296;2023-10-08T01:06:57;5.05;;;4.07;;
21868;SDS011;11099;41.564;23.296;2023-10-08T01:12:14;5.75;;;4.50;;
21868;SDS011;11099;41.564;23.296;2023-10-08T01:14:43;7.25;;;3.85;;
21868;SDS011;11099;41.564;23.296;2023-10-08T01:17:11;6.85;;;3.67;;
21868;SDS011;11099;41.564;23.296;2023-10-08T01:19:44;6.38;;;3.63;;
21868;SDS011;11099;41.564;23.296;2023-10-08T01:22:15;5.97;;;4.00;;
21868;SDS011;11099;41.564;23.296;2023-10-08T01:27:14;4.28;;;3.65;;
21868;SDS011;11099;41.564;23.296;2023-10-08T01:29:47;4.75;;;3.85;;
21868;SDS011;11099;41.564;23.296;2023-10-08T01:32:15;4.80;;;3.47;;
21868;SDS011;11099;41.564;23.296;2023-10-08T01:34:42;7.53;;;4.00;;
21868;SDS011;11099;41.564;23.296;2023-10-08T01:37:14;4.30;;;3.28;;
21868;SDS011;11099;41.564;23.296;2023-10-08T01:39:46;4.75;;;3.90;;
21868;SDS011;11099;41.564;23.296;2023-10-08T01:42:18;5.35;;;3.75;;
21868;SDS011;11099;41.564;23.296;2023-10-08T01:44:48;5.55;;;3.72;;
21868;SDS011;11099;41.564;23.296;2023-10-08T01:47:15;4.28;;;3.40;;
21868;SDS011;11099;41.564;23.296;2023-10-08T01:49:42;5.32;;;4.13;;
21868;SDS011;11099;41.564;23.296;2023-10-08T01:52:11;4.47;;;3.72;;
21868;SDS011;11099;41.564;23.296;2023-10-08T01:54:47;3.92;;;3.55;;
21868;SDS011;11099;41.564;23.296;2023-10-08T01:57:14;7.07;;;3.95;;
21868;SDS011;11099;41.564;23.296;2023-10-08T01:59:40;4.85;;;3.60;;
21868;SDS011;11099;41.564;23.296;2023-10-08T02:02:06;4.00;;;3.40;;
21868;SDS011;11099;41.564;23.296;2023-10-08T02:04:34;6.00;;;3.85;;
21868;SDS011;11099;41.564;23.296;2023-10-08T02:07:03;5.85;;;4.07;;
21868;SDS011;11099;41.564;23.296;2023-10-08T02:09:32;4.03;;;3.63;;
21868;SDS011;11099;41.564;23.296;2023-10-08T02:11:58;4.38;;;3.00;;
21868;SDS011;11099;41.564;23.296;2023-10-08T02:14:24;5.38;;;3.78;;
21868;SDS011;11099;41.564;23.296;2023-10-08T02:16:50;4.07;;;3.67;;
21868;SDS011;11099;41.564;23.296;2023-10-08T02:19:21;3.78;;;3.40;;
21868;SDS011;11099;41.564;23.296;2023-10-08T02:21:52;5.45;;;3.40;;
21868;SDS011;11099;41.564;23.296;2023-10-08T02:24:19;5.45;;;3.50;;
21868;SDS011;11099;41.564;23.296;2023-10-08T02:26:52;8.95;;;3.90;;
21868;SDS011;11099;41.564;23.296;2023-10-08T02:29:20;7.85;;;3.50;;
21868;SDS011;11099;41.564;23.296;2023-10-08T02:31:47;5.45;;;3.75;;
21868;SDS011;11099;41.564;23.296;2023-10-08T02:34:12;6.53;;;3.63;;
21868;SDS011;11099;41.564;23.296;2023-10-08T02:36:39;5.57;;;3.53;;
21868;SDS011;11099;41.564;23.296;2023-10-08T02:39:06;6.88;;;4.07;;
21868;SDS011;11099;41.564;23.296;2023-10-08T02:41:42;4.05;;;3.58;;
21868;SDS011;11099;41.564;23.296;2023-10-08T02:44:12;4.53;;;3.28;;
21868;SDS011;11099;41.564;23.296;2023-10-08T02:46:39;5.57;;;4.15;;
21868;SDS011;11099;41.564;23.296;2023-10-08T02:49:07;5.30;;;3.65;;
21868;SDS011;11099;41.564;23.296;2023-10-08T02:51:36;6.40;;;3.50;;
21868;SDS011;11099;41.564;23.296;2023-10-08T02:54:06;6.60;;;3.83;;
21868;SDS011;11099;41.564;23.296;2023-10-08T02:56:33;5.20;;;3.78;;
21868;SDS011;11099;41.564;23.296;2023-10-08T02:58:59;14.90;;;3.30;;
21868;SDS011;11099;41.564;23.296;2023-10-08T03:01:28;5.53;;;3.40;;
21868;SDS011;11099;41.564;23.296;2023-10-08T03:03:59;5.88;;;3.55;;
21868;SDS011;11099;41.564;23.296;2023-10-08T03:06:33;7.15;;;3.72;;
21868;SDS011;11099;41.564;23.296;2023-10-08T03:08:58;4.53;;;3.95;;
21868;SDS011;11099;41.564;23.296;2023-10-08T03:11:30;7.93;;;4.30;;
21868;SDS011;11099;41.564;23.296;2023-10-08T03:13:56;6.72;;;4.65;;
21868;SDS011;11099;41.564;23.296;2023-10-08T03:16:22;5.40;;;3.53;;
21868;SDS011;11099;41.564;23.296;2023-10-08T03:18:54;6.78;;;3.78;;
21868;SDS011;11099;41.564;23.296;2023-10-08T03:21:22;5.35;;;3.60;;
21868;SDS011;11099;41.564;23.296;2023-10-08T03:24:03;4.40;;;3.33;;
21868;SDS011;11099;41.564;23.296;2023-10-08T03:26:38;5.40;;;3.72;;
21868;SDS011;11099;41.564;23.296;2023-10-08T03:29:10;6.05;;;3.60;;
21868;SDS011;11099;41.564;23.296;2023-10-08T03:31:43;6.35;;;3.40;;
21868;SDS011;11099;41.564;23.296;2023-10-08T03:34:12;6.53;;;3.58;;
21868;SDS011;11099;41.564;23.296;2023-10-08T03:36:38;5.82;;;2.92;;
21868;SDS011;11099;41.564;23.296;2023-10-08T03:39:13;5.20;;;3.53;;
21868;SDS011;11099;41.564;23.296;2023-10-08T03:41:39;6.32;;;3.67;;
21868;SDS011;11099;41.564;23.296;2023-10-08T03:44:06;5.47;;;3.78;;
21868;SDS011;11099;41.564;23.296;2023-10-08T03:46:39;5.07;;;3.38;;
21868;SDS011;11099;41.564;23.296;2023-10-08T03:49:08;4.90;;;3.45;;
21868;SDS011;11099;41.564;23.296;2023-10-08T03:51:46;7.85;;;4.22;;
21868;SDS011;11099;41.564;23.296;2023-10-08T03:54:16;9.52;;;3.83;;
21868;SDS011;11099;41.564;23.296;2023-10-08T03:56:44;5.85;;;3.60;;
21868;SDS011;11099;41.564;23.296;2023-10-08T03:59:11;4.95;;;3.88;;
21868;SDS011;11099;41.564;23.296;2023-10-08T04:01:39;9.50;;;3.78;;
21868;SDS011;11099;41.564;23.296;2023-10-08T04:04:06;4.60;;;3.42;;
21868;SDS011;11099;41.564;23.296;2023-10-08T04:06:37;10.48;;;3.50;;
21868;SDS011;11099;41.564;23.296;2023-10-08T04:09:04;4.18;;;3.53;;
21868;SDS011;11099;41.564;23.296;2023-10-08T04:11:33;5.85;;;3.30;;
21868;SDS011;11099;41.564;23.296;2023-10-08T04:14:08;5.50;;;3.40;;
21868;SDS011;11099;41.564;23.296;2023-10-08T04:16:34;4.78;;;3.25;;
21868;SDS011;11099;41.564;23.296;2023-10-08T04:19:03;5.83;;;3.90;;
21868;SDS011;11099;41.564;23.296;2023-10-08T04:21:29;4.57;;;3.67;;
21868;SDS011;11099;41.564;23.296;2023-10-08T04:23:59;4.95;;;3.95;;
21868;SDS011;11099;41.564;23.296;2023-10-08T04:26:30;7.22;;;3.38;;
21868;SDS011;11099;41.564;23.296;2023-10-08T04:28:57;5.18;;;3.40;;
21868;SDS011;11099;41.564;23.296;2023-10-08T04:31:30;4.68;;;3.20;;
21868;SDS011;11099;41.564;23.296;2023-10-08T04:34:06;4.85;;;3.60;;
21868;SDS011;11099;41.564;23.296;2023-10-08T04:36:46;5.32;;;3.88;;
21868;SDS011;11099;41.564;23.296;2023-10-08T04:39:13;5.40;;;3.97;;
21868;SDS011;11099;41.564;23.296;2023-10-08T04:41:41;5.13;;;3.58;;
21868;SDS011;11099;41.564;23.296;2023-10-08T04:44:10;5.57;;;3.92;;
21868;SDS011;11099;41.564;23.296;2023-10-08T04:46:42;3.85;;;3.42;;
21868;SDS011;11099;41.564;23.296;2023-10-08T04:52:01;3.78;;;3.30;;
21868;SDS011;11099;41.564;23.296;2023-10-08T04:54:39;5.72;;;3.45;;
21868;SDS011;11099;41.564;23.296;2023-10-08T04:57:07;3.78;;;3.40;;
21868;SDS011;11099;41.564;23.296;2023-10-08T04:59:41;4.90;;;3.40;;
21868;SDS011;11099;41.564;23.296;2023-10-08T05:02:08;7.30;;;4.00;;
21868;SDS011;11099;41.564;23.296;2023-10-08T05:05:12;5.30;;;3.42;;
21868;SDS011;11099;41.564;23.296;2023-10-08T05:07:41;4.53;;;3.20;;
21868;SDS011;11099;41.564;23.296;2023-10-08T05:10:09;6.68;;;3.65;;
21868;SDS011;11099;41.564;23.296;2023-10-08T05:12:56;6.00;;;3.28;;
21868;SDS011;11099;41.564;23.296;2023-10-08T05:15:28;6.40;;;3.45;;
21868;SDS011;11099;41.564;23.296;2023-10-08T05:18:12;4.55;;;3.10;;
21868;SDS011;11099;41.564;23.296;2023-10-08T05:20:44;6.70;;;3.75;;
21868;SDS011;11099;41.564;23.296;2023-10-08T05:23:17;7.43;;;3.80;;
21868;SDS011;11099;41.564;23.296;2023-10-08T05:25:57;6.40;;;3.20;;
21868;SDS011;11099;41.564;23.296;2023-10-08T05:31:10;4.68;;;3.35;;
21868;SDS011;11099;41.564;23.296;2023-10-08T05:33:47;4.90;;;3.05;;
21868;SDS011;11099;41.564;23.296;2023-10-08T05:36:31;8.68;;;3.38;;
21868;SDS011;11099;41.564;23.296;2023-10-08T05:39:15;5.10;;;3.38;;
21868;SDS011;11099;41.564;23.296;2023-10-08T05:41:50;4.60;;;3.17;;
21868;SDS011;11099;41.564;23.296;2023-10-08T05:44:39;6.10;;;3.70;;
21868;SDS011;11099;41.564;23.296;2023-10-08T05:47:11;3.72;;;2.90;;
21868;SDS011;11099;41.564;23.296;2023-10-08T05:49:54;7.50;;;3.78;;
21868;SDS011;11099;41.564;23.296;2023-10-08T05:52:39;5.43;;;3.50;;
21868;SDS011;11099;41.564;23.296;2023-10-08T05:55:23;8.40;;;3.65;;
21868;SDS011;11099;41.564;23.296;2023-10-08T06:00:50;7.40;;;3.70;;
21868;SDS011;11099;41.564;23.296;2023-10-08T06:03:51;4.95;;;3.25;;
21868;SDS011;11099;41.564;23.296;2023-10-08T06:06:28;7.57;;;3.33;;
21868;SDS011;11099;41.564;23.296;2023-10-08T06:09:08;9.95;;;3.83;;
21868;SDS011;11099;41.564;23.296;2023-10-08T06:11:34;10.27;;;4.03;;
21868;SDS011;11099;41.564;23.296;2023-10-08T06:14:09;9.35;;;3.90;;
21868;SDS011;11099;41.564;23.296;2023-10-08T06:16:42;7.57;;;3.78;;
21868;SDS011;11099;41.564;23.296;2023-10-08T06:19:12;7.07;;;3.85;;
21868;SDS011;11099;41.564;23.296;2023-10-08T06:21:39;7.25;;;3.67;;
21868;SDS011;11099;41.564;23.296;2023-10-08T06:24:07;5.40;;;3.67;;
21868;SDS011;11099;41.564;23.296;2023-10-08T06:26:41;6.93;;;3.85;;
21868;SDS011;11099;41.564;23.296;2023-10-08T06:29:10;6.10;;;4.00;;
21868;SDS011;11099;41.564;23.296;2023-10-08T06:31:56;13.45;;;4.97;;
21868;SDS011;11099;41.564;23.296;2023-10-08T06:34:27;15.48;;;5.05;;
21868;SDS011;11099;41.564;23.296;2023-10-08T06:36:55;7.90;;;3.60;;
21868;SDS011;11099;41.564;23.296;2023-10-08T06:39:22;9.82;;;5.57;;
21868;SDS011;11099;41.564;23.296;2023-10-08T06:41:59;15.35;;;5.50;;
21868;SDS011;11099;41.564;23.296;2023-10-08T06:44:25;9.63;;;5.50;;
21868;SDS011;11099;41.564;23.296;2023-10-08T06:46:52;12.10;;;5.60;;
21868;SDS011;11099;41.564;23.296;2023-10-08T06:49:21;8.77;;;5.82;;
21868;SDS011;11099;41.564;23.296;2023-10-08T06:51:51;10.05;;;6.10;;
21868;SDS011;11099;41.564;23.296;2023-10-08T06:54:17;8.48;;;5.63;;
21868;SDS011;11099;41.564;23.296;2023-10-08T06:56:43;10.38;;;5.40;;
21868;SDS011;11099;41.564;23.296;2023-10-08T06:59:16;12.23;;;5.97;;
21868;SDS011;11099;41.564;23.296;2023-10-08T07:01:43;8.88;;;5.55;;
21868;SDS011;11099;41.564;23.296;2023-10-08T07:04:11;11.60;;;5.63;;
21868;SDS011;11099;41.564;23.296;2023-10-08T07:06:40;8.75;;;5.13;;
21868;SDS011;11099;41.564;23.296;2023-10-08T07:09:08;9.77;;;4.88;;
21868;SDS011;11099;41.564;23.296;2023-10-08T07:11:54;11.88;;;5.28;;
21868;SDS011;11099;41.564;23.296;2023-10-08T07:14:24;7.53;;;4.60;;
21868;SDS011;11099;41.564;23.296;2023-10-08T07:16:54;11.18;;;5.25;;
21868;SDS011;11099;41.564;23.296;2023-10-08T07:19:23;15.07;;;7.30;;
21868;SDS011;11099;41.564;23.296;2023-10-08T07:22:02;13.13;;;6.95;;
21868;SDS011;11099;41.564;23.296;2023-10-08T07:24:54;15.80;;;7.00;;
21868;SDS011;11099;41.564;23.296;2023-10-08T07:27:20;13.55;;;6.45;;
21868;SDS011;11099;41.564;23.296;2023-10-08T07:29:56;15.35;;;5.65;;
21868;SDS011;11099;41.564;23.296;2023-10-08T07:32:24;8.35;;;4.93;;
21868;SDS011;11099;41.564;23.296;2023-10-08T07:34:50;11.95;;;5.47;;
21868;SDS011;11099;41.564;23.296;2023-10-08T07:37:22;12.80;;;5.20;;
21868;SDS011;11099;41.564;23.296;2023-10-08T07:39:48;9.23;;;4.88;;
21868;SDS011;11099;41.564;23.296;2023-10-08T07:42:14;11.52;;;5.35;;
21868;SDS011;11099;41.564;23.296;2023-10-08T07:44:40;10.52;;;5.00;;
21868;SDS011;11099;41.564;23.296;2023-10-08T07:47:06;8.52;;;5.30;;
21868;SDS011;11099;41.564;23.296;2023-10-08T07:49:37;7.30;;;5.35;;
21868;SDS011;11099;41.564;23.296;2023-10-08T07:52:04;11.43;;;5.68;;
21868;SDS011;11099;41.564;23.296;2023-10-08T07:54:30;9.13;;;5.50;;
21868;SDS011;11099;41.564;23.296;2023-10-08T07:56:59;12.63;;;5.47;;
21868;SDS011;11099;41.564;23.296;2023-10-08T07:59:51;8.32;;;4.90;;
21868;SDS011;11099;41.564;23.296;2023-10-08T08:02:20;10.77;;;5.25;;
21868;SDS011;11099;41.564;23.296;2023-10-08T08:04:51;6.30;;;4.47;;
21868;SDS011;11099;41.564;23.296;2023-10-08T08:07:21;6.00;;;4.70;;
21868;SDS011;11099;41.564;23.296;2023-10-08T08:09:52;7.18;;;4.65;;
21868;SDS011;11099;41.564;23.296;2023-10-08T08:12:24;10.75;;;5.00;;
21868;SDS011;11099;41.564;23.296;2023-10-08T08:14:51;5.40;;;3.95;;
21868;SDS011;11099;41.564;23.296;2023-10-08T08:17:17;7.78;;;4.50;;
21868;SDS011;11099;41.564;23.296;2023-10-08T08:19:44;8.35;;;4.72;;
21868;SDS011;11099;41.564;23.296;2023-10-08T08:22:12;6.85;;;4.50;;
21868;SDS011;11099;41.564;23.296;2023-10-08T08:24:45;10.35;;;5.03;;
21868;SDS011;11099;41.564;23.296;2023-10-08T08:27:12;5.40;;;4.40;;
21868;SDS011;11099;41.564;23.296;2023-10-08T08:29:51;7.05;;;4.75;;
21868;SDS011;11099;41.564;23.296;2023-10-08T08:32:21;10.23;;;4.88;;
21868;SDS011;11099;41.564;23.296;2023-10-08T08:34:49;10.50;;;4.85;;
21868;SDS011;11099;41.564;23.296;2023-10-08T08:37:18;6.25;;;4.50;;
21868;SDS011;11099;41.564;23.296;2023-10-08T08:39:47;9.40;;;5.10;;
21868;SDS011;11099;41.564;23.296;2023-10-08T08:42:13;9.40;;;4.90;;
21868;SDS011;11099;41.564;23.296;2023-10-08T08:44:43;7.93;;;4.57;;
21868;SDS011;11099;41.564;23.296;2023-10-08T08:47:15;10.05;;;4.80;;
21868;SDS011;11099;41.564;23.296;2023-10-08T08:49:45;7.85;;;4.70;;
21868;SDS011;11099;41.564;23.296;2023-10-08T08:52:12;9.60;;;4.72;;
21868;SDS011;11099;41.564;23.296;2023-10-08T08:54:39;8.00;;;4.80;;
21868;SDS011;11099;41.564;23.296;2023-10-08T08:57:05;7.95;;;5.07;;
21868;SDS011;11099;41.564;23.296;2023-10-08T08:59:33;5.82;;;4.35;;
21868;SDS011;11099;41.564;23.296;2023-10-08T09:02:01;8.67;;;5.17;;
21868;SDS011;11099;41.564;23.296;2023-10-08T09:04:32;6.20;;;4.20;;
21868;SDS011;11099;41.564;23.296;2023-10-08T09:07:01;4.60;;;4.10;;
21868;SDS011;11099;41.564;23.296;2023-10-08T09:09:33;6.70;;;4.50;;
21868;SDS011;11099;41.564;23.296;2023-10-08T09:12:06;6.28;;;5.03;;
21868;SDS011;11099;41.564;23.296;2023-10-08T09:14:35;6.97;;;4.13;;
21868;SDS011;11099;41.564;23.296;2023-10-08T09:17:02;7.53;;;4.43;;
21868;SDS011;11099;41.564;23.296;2023-10-08T09:19:30;9.20;;;5.10;;
21868;SDS011;11099;41.564;23.296;2023-10-08T09:22:05;7.88;;;4.80;;
21868;SDS011;11099;41.564;23.296;2023-10-08T09:24:33;8.57;;;4.53;;
21868;SDS011;11099;41.564;23.296;2023-10-08T09:27:02;8.82;;;4.68;;
21868;SDS011;11099;41.564;23.296;2023-10-08T09:29:28;7.18;;;4.43;;
21868;SDS011;11099;41.564;23.296;2023-10-08T09:31:58;7.20;;;4.45;;
21868;SDS011;11099;41.564;23.296;2023-10-08T09:34:31;9.88;;;3.90;;
21868;SDS011;11099;41.564;23.296;2023-10-08T09:36:58;8.10;;;4.85;;
21868;SDS011;11099;41.564;23.296;2023-10-08T09:39:28;8.82;;;4.82;;
21868;SDS011;11099;41.564;23.296;2023-10-08T09:41:59;6.20;;;4.63;;
21868;SDS011;11099;41.564;23.296;2023-10-08T09:44:25;5.28;;;4.30;;
21868;SDS011;11099;41.564;23.296;2023-10-08T09:46:57;6.30;;;4.00;;
21868;SDS011;11099;41.564;23.296;2023-10-08T09:49:32;10.63;;;4.57;;
21868;SDS011;11099;41.564;23.296;2023-10-08T09:52:09;5.55;;;4.15;;
21868;SDS011;11099;41.564;23.296;2023-10-08T09:54:48;8.07;;;4.88;;
21868;SDS011;11099;41.564;23.296;2023-10-08T09:57:19;8.65;;;4.72;;
21868;SDS011;11099;41.564;23.296;2023-10-08T09:59:50;7.38;;;5.05;;
21868;SDS011;11099;41.564;23.296;2023-10-08T10:02:16;6.75;;;4.22;;
21868;SDS011;11099;41.564;23.296;2023-10-08T10:04:43;5.40;;;4.10;;
21868;SDS011;11099;41.564;23.296;2023-10-08T10:07:10;4.65;;;3.72;;
21868;SDS011;11099;41.564;23.296;2023-10-08T10:09:38;10.98;;;4.05;;
21868;SDS011;11099;41.564;23.296;2023-10-08T10:12:05;6.60;;;4.07;;
21868;SDS011;11099;41.564;23.296;2023-10-08T10:14:41;7.32;;;4.20;;
21868;SDS011;11099;41.564;23.296;2023-10-08T10:17:09;7.05;;;3.85;;
21868;SDS011;11099;41.564;23.296;2023-10-08T10:19:39;7.95;;;4.00;;
21868;SDS011;11099;41.564;23.296;2023-10-08T10:22:11;9.93;;;4.55;;
21868;SDS011;11099;41.564;23.296;2023-10-08T10:24:40;7.45;;;4.07;;
21868;SDS011;11099;41.564;23.296;2023-10-08T10:27:13;7.25;;;4.00;;
21868;SDS011;11099;41.564;23.296;2023-10-08T10:29:44;6.10;;;4.22;;
21868;SDS011;11099;41.564;23.296;2023-10-08T10:32:12;6.53;;;3.88;;
21868;SDS011;11099;41.564;23.296;2023-10-08T10:34:44;10.70;;;4.85;;
21868;SDS011;11099;41.564;23.296;2023-10-08T10:37:12;5.30;;;3.40;;
21868;SDS011;11099;41.564;23.296;2023-10-08T10:39:54;22.83;;;4.47;;
21868;SDS011;11099;41.564;23.296;2023-10-08T10:42:26;7.43;;;3.67;;
21868;SDS011;11099;41.564;23.296;2023-10-08T10:44:53;9.93;;;3.15;;
21868;SDS011;11099;41.564;23.296;2023-10-08T10:47:23;14.18;;;3.85;;
21868;SDS011;11099;41.564;23.296;2023-10-08T10:49:53;10.95;;;3.00;;
21868;SDS011;11099;41.564;23.296;2023-10-08T10:52:26;17.42;;;3.17;;
21868;SDS011;11099;41.564;23.296;2023-10-08T10:55:17;8.32;;;3.58;;
21868;SDS011;11099;41.564;23.296;2023-10-08T11:00:21;7.28;;;3.42;;
21868;SDS011;11099;41.564;23.296;2023-10-08T11:03:12;5.03;;;3.20;;
21868;SDS011;11099;41.564;23.296;2023-10-08T11:05:42;7.55;;;3.75;;
21868;SDS011;11099;41.564;23.296;2023-10-08T11:08:13;3.90;;;2.88;;
21868;SDS011;11099;41.564;23.296;2023-10-08T11:10:41;5.60;;;2.63;;
21868;SDS011;11099;41.564;23.296;2023-10-08T11:13:18;7.53;;;3.10;;
21868;SDS011;11099;41.564;23.296;2023-10-08T11:15:46;6.70;;;3.10;;
21868;SDS011;11099;41.564;23.296;2023-10-08T11:18:20;12.30;;;3.40;;
21868;SDS011;11099;41.564;23.296;2023-10-08T11:20:47;7.40;;;2.40;;
21868;SDS011;11099;41.564;23.296;2023-10-08T11:23:41;4.70;;;2.97;;
21868;SDS011;11099;41.564;23.296;2023-10-08T11:26:37;6.10;;;2.85;;
21868;SDS011;11099;41.564;23.296;2023-10-08T11:29:19;11.40;;;2.95;;
21868;SDS011;11099;41.564;23.296;2023-10-08T11:31:51;7.05;;;3.00;;
21868;SDS011;11099;41.564;23.296;2023-10-08T11:34:18;11.27;;;2.55;;
21868;SDS011;11099;41.564;23.296;2023-10-08T11:36:52;5.40;;;2.47;;
21868;SDS011;11099;41.564;23.296;2023-10-08T11:39:18;5.20;;;2.78;;
21868;SDS011;11099;41.564;23.296;2023-10-08T11:44:22;4.65;;;2.80;;
21868;SDS011;11099;41.564;23.296;2023-10-08T11:46:49;6.80;;;3.08;;
21868;SDS011;11099;41.564;23.296;2023-10-08T11:49:17;6.70;;;2.78;;
21868;SDS011;11099;41.564;23.296;2023-10-08T11:51:46;9.82;;;3.17;;
21868;SDS011;11099;41.564;23.296;2023-10-08T11:56:38;6.88;;;2.95;;
21868;SDS011;11099;41.564;23.296;2023-10-08T11:59:04;6.97;;;2.63;;
21868;SDS011;11099;41.564;23.296;2023-10-08T12:01:37;3.42;;;2.65;;
21868;SDS011;11099;41.564;23.296;2023-10-08T12:04:07;9.48;;;3.70;;
21868;SDS011;11099;41.564;23.296;2023-10-08T12:06:41;6.00;;;2.72;;
21868;SDS011;11099;41.564;23.296;2023-10-08T12:09:17;7.10;;;3.15;;
21868;SDS011;11099;41.564;23.296;2023-10-08T12:11:47;11.25;;;3.05;;
21868;SDS011;11099;41.564;23.296;2023-10-08T12:14:13;7.22;;;2.92;;
21868;SDS011;11099;41.564;23.296;2023-10-08T12:16:40;11.68;;;3.25;;
21868;SDS011;11099;41.564;23.296;2023-10-08T12:19:06;8.50;;;2.85;;
21868;SDS011;11099;41.564;23.296;2023-10-08T12:21:41;8.48;;;3.15;;
21868;SDS011;11099;41.564;23.296;2023-10-08T12:24:07;7.38;;;3.20;;
21868;SDS011;11099;41.564;23.296;2023-10-08T12:26:37;10.82;;;2.85;;
21868;SDS011;11099;41.564;23.296;2023-10-08T12:29:10;9.48;;;2.70;;
21868;SDS011;11099;41.564;23.296;2023-10-08T12:31:44;5.13;;;2.75;;
21868;SDS011;11099;41.564;23.296;2023-10-08T12:34:13;5.43;;;2.57;;
21868;SDS011;11099;41.564;23.296;2023-10-08T12:36:39;4.95;;;2.88;;
21868;SDS011;11099;41.564;23.296;2023-10-08T12:39:04;8.15;;;3.10;;
21868;SDS011;11099;41.564;23.296;2023-10-08T12:44:18;6.30;;;2.55;;
21868;SDS011;11099;41.564;23.296;2023-10-08T12:46:44;6.30;;;3.20;;
21868;SDS011;11099;41.564;23.296;2023-10-08T12:49:13;10.20;;;3.50;;
21868;SDS011;11099;41.564;23.296;2023-10-08T12:51:38;9.45;;;3.55;;
21868;SDS011;11099;41.564;23.296;2023-10-08T12:54:06;6.88;;;3.05;;
21868;SDS011;11099;41.564;23.296;2023-10-08T12:56:33;8.23;;;2.78;;
21868;SDS011;11099;41.564;23.296;2023-10-08T12:59:13;9.00;;;3.17;;
21868;SDS011;11099;41.564;23.296;2023-10-08T13:01:45;8.35;;;2.83;;
21868;SDS011;11099;41.564;23.296;2023-10-08T13:04:16;9.50;;;3.30;;
21868;SDS011;11099;41.564;23.296;2023-10-08T13:07:00;7.47;;;2.65;;
21868;SDS011;11099;41.564;23.296;2023-10-08T13:09:27;11.57;;;2.88;;
21868;SDS011;11099;41.564;23.296;2023-10-08T13:11:56;9.82;;;3.28;;
21868;SDS011;11099;41.564;23.296;2023-10-08T13:16:50;6.30;;;2.72;;
21868;SDS011;11099;41.564;23.296;2023-10-08T13:19:19;6.88;;;3.55;;
21868;SDS011;11099;41.564;23.296;2023-10-08T13:21:45;6.68;;;3.35;;
21868;SDS011;11099;41.564;23.296;2023-10-08T13:24:12;6.30;;;2.90;;
21868;SDS011;11099;41.564;23.296;2023-10-08T13:26:38;6.07;;;2.90;;
21868;SDS011;11099;41.564;23.296;2023-10-08T13:29:04;6.50;;;3.28;;
21868;SDS011;11099;41.564;23.296;2023-10-08T13:31:30;5.50;;;2.95;;
21868;SDS011;11099;41.564;23.296;2023-10-08T13:34:01;13.60;;;3.78;;
21868;SDS011;11099;41.564;23.296;2023-10-08T13:36:29;16.97;;;3.43;;
21868;SDS011;11099;41.564;23.296;2023-10-08T13:38:55;6.25;;;2.63;;
21868;SDS011;11099;41.564;23.296;2023-10-08T13:41:21;8.00;;;2.53;;
21868;SDS011;11099;41.564;23.296;2023-10-08T13:43:47;7.38;;;2.70;;
21868;SDS011;11099;41.564;23.296;2023-10-08T13:46:21;12.40;;;2.92;;
21868;SDS011;11099;41.564;23.296;2023-10-08T13:48:56;5.85;;;2.88;;
21868;SDS011;11099;41.564;23.296;2023-10-08T13:51:47;6.22;;;2.65;;
21868;SDS011;11099;41.564;23.296;2023-10-08T13:54:20;9.50;;;2.70;;
21868;SDS011;11099;41.564;23.296;2023-10-08T13:56:57;4.55;;;2.85;;
21868;SDS011;11099;41.564;23.296;2023-10-08T13:59:23;6.22;;;2.67;;
21868;SDS011;11099;41.564;23.296;2023-10-08T14:01:49;5.28;;;2.80;;
21868;SDS011;11099;41.564;23.296;2023-10-08T14:04:20;5.60;;;3.15;;
21868;SDS011;11099;41.564;23.296;2023-10-08T14:06:51;6.45;;;2.75;;
21868;SDS011;11099;41.564;23.296;2023-10-08T14:09:17;7.10;;;2.65;;
21868;SDS011;11099;41.564;23.296;2023-10-08T14:11:50;7.80;;;2.88;;
21868;SDS011;11099;41.564;23.296;2023-10-08T14:14:17;6.78;;;2.63;;
21868;SDS011;11099;41.564;23.296;2023-10-08T14:16:45;3.22;;;2.25;;
21868;SDS011;11099;41.564;23.296;2023-10-08T14:19:17;5.55;;;2.50;;
21868;SDS011;11099;41.564;23.296;2023-10-08T14:21:47;5.65;;;3.00;;
21868;SDS011;11099;41.564;23.296;2023-10-08T14:24:25;7.95;;;2.85;;
21868;SDS011;11099;41.564;23.296;2023-10-08T14:26:53;5.47;;;2.45;;
21868;SDS011;11099;41.564;23.296;2023-10-08T14:29:22;5.28;;;2.45;;
21868;SDS011;11099;41.564;23.296;2023-10-08T14:31:52;7.60;;;2.47;;
21868;SDS011;11099;41.564;23.296;2023-10-08T14:34:21;8.57;;;2.83;;
21868;SDS011;11099;41.564;23.296;2023-10-08T14:37:07;10.70;;;2.97;;
21868;SDS011;11099;41.564;23.296;2023-10-08T14:39:51;8.68;;;2.95;;
21868;SDS011;11099;41.564;23.296;2023-10-08T14:42:35;6.57;;;3.05;;
21868;SDS011;11099;41.564;23.296;2023-10-08T14:45:27;8.50;;;2.72;;
21868;SDS011;11099;41.564;23.296;2023-10-08T14:47:57;10.00;;;2.80;;
21868;SDS011;11099;41.564;23.296;2023-10-08T14:50:24;16.65;;;2.50;;
21868;SDS011;11099;41.564;23.296;2023-10-08T14:52:53;9.38;;;3.30;;
21868;SDS011;11099;41.564;23.296;2023-10-08T14:55:22;8.43;;;2.63;;
21868;SDS011;11099;41.564;23.296;2023-10-08T14:57:48;9.52;;;3.20;;
21868;SDS011;11099;41.564;23.296;2023-10-08T15:00:26;8.82;;;2.85;;
21868;SDS011;11099;41.564;23.296;2023-10-08T15:02:52;7.13;;;2.63;;
21868;SDS011;11099;41.564;23.296;2023-10-08T15:05:19;15.43;;;3.35;;
21868;SDS011;11099;41.564;23.296;2023-10-08T15:07:47;9.48;;;2.55;;
21868;SDS011;11099;41.564;23.296;2023-10-08T15:10:14;6.15;;;2.72;;
21868;SDS011;11099;41.564;23.296;2023-10-08T15:12:40;10.35;;;2.38;;
21868;SDS011;11099;41.564;23.296;2023-10-08T15:15:06;8.95;;;2.75;;
21868;SDS011;11099;41.564;23.296;2023-10-08T15:17:44;10.40;;;2.80;;
21868;SDS011;11099;41.564;23.296;2023-10-08T15:20:12;9.13;;;2.78;;
21868;SDS011;11099;41.564;23.296;2023-10-08T15:22:48;8.95;;;3.03;;